createdAt,value
2019-04-22T00:00:51.410Z,101456.94
2019-04-22T00:01:50.321Z,101456.22
2019-04-22T00:02:51.652Z,101455.75
2019-04-22T00:03:56.528Z,101454.89
2019-04-22T00:05:01.101Z,101454.28
2019-04-22T00:06:06.740Z,101453.55
2019-04-22T00:07:09.851Z,101452.61
2019-04-22T00:08:17.136Z,101452.17
2019-04-22T00:09:21.741Z,101452.11
2019-04-22T00:10:19.366Z,101451.33
2019-04-22T00:11:18.108Z,101450.56
2019-04-22T00:12:19.664Z,101449.70
2019-04-22T00:13:23.861Z,101449.25
2019-04-22T00:14:13.123Z,101448.73
2019-04-22T00:15:11.590Z,101447.66
2019-04-22T00:16:22.609Z,101446.87
2019-04-22T00:17:26.233Z,101446.06
2019-04-22T00:18:22.398Z,101445.97
2019-04-22T00:19:22.671Z,101445.11
2019-04-22T00:20:22.663Z,101444.45
2019-04-22T00:21:26.323Z,101443.59
2019-04-22T00:22:23.834Z,101443.66
2019-04-22T00:23:18.713Z,101443.13
2019-04-22T00:24:24.059Z,101442.86
2019-04-22T00:25:32.940Z,101441.83
2019-04-22T00:27:29.450Z,101440.71
2019-04-22T00:28:30.806Z,101440.16
2019-04-22T00:29:42.628Z,101440.02
2019-04-22T00:30:21.961Z,101438.92
2019-04-22T00:31:28.554Z,101437.86
2019-04-22T00:32:27.258Z,101436.92
2019-04-22T00:33:29.119Z,101436.28
2019-04-22T00:34:25.463Z,101435.14
2019-04-22T00:35:23.612Z,101434.58
2019-04-22T00:36:27.515Z,101434.11
2019-04-22T00:37:28.309Z,101433.47
2019-04-22T00:38:32.846Z,101432.95
2019-04-22T00:38:38.765Z,101418.17
2019-04-22T00:40:39.304Z,101417.95
2019-04-22T00:41:37.194Z,101418.16
2019-04-22T00:42:29.466Z,101417.85
2019-04-22T00:43:42.204Z,101417.71
2019-04-22T00:44:41.527Z,101417.83
2019-04-22T00:45:40.053Z,101417.70
2019-04-22T00:46:38.089Z,101417.70
2019-04-22T00:47:57.220Z,101417.22
2019-04-22T00:48:43.124Z,101416.66
2019-04-22T00:51:04.203Z,101415.55
2019-04-22T00:51:44.514Z,101415.66
2019-04-22T00:52:40.377Z,101415.44
2019-04-22T00:53:41.561Z,101414.66
2019-04-22T00:54:51.291Z,101414.28
2019-04-22T00:55:38.767Z,101413.86
2019-04-22T00:56:40.877Z,101413.33
2019-04-22T00:57:42.624Z,101413.28
2019-04-22T00:58:40.732Z,101412.41
2019-04-22T00:59:48.532Z,101411.86
2019-04-22T01:00:49.328Z,101411.53
2019-04-22T01:01:47.114Z,101411.14
2019-04-22T01:02:49.567Z,101410.78
2019-04-22T01:03:50.421Z,101410.34
2019-04-22T01:04:48.905Z,101410.02
2019-04-22T01:05:46.935Z,101409.55
2019-04-22T01:06:49.859Z,101409.19
2019-04-22T01:07:43.163Z,101408.58
2019-04-22T01:08:53.759Z,101407.63
2019-04-22T01:09:55.357Z,101407.19
2019-04-22T01:10:54.019Z,101406.45
2019-04-22T01:11:44.919Z,101405.84
2019-04-22T01:12:51.541Z,101405.38
2019-04-22T01:13:52.140Z,101405.35
2019-04-22T01:14:49.057Z,101404.70
2019-04-22T01:15:47.794Z,101403.81
2019-04-22T01:16:56.425Z,101403.77
2019-04-22T01:17:52.959Z,101402.98
2019-04-22T01:18:55.146Z,101402.63
2019-04-22T01:19:58.312Z,101401.47
2019-04-22T01:21:13.631Z,101400.86
2019-04-22T01:21:52.804Z,101400.08
2019-04-22T01:22:52.107Z,101399.52
2019-04-22T01:23:52.131Z,101398.23
2019-04-22T01:24:50.141Z,101397.34
2019-04-22T01:25:55.277Z,101396.39
2019-04-22T01:26:49.011Z,101396.25
2019-04-22T01:27:48.877Z,101395.09
2019-04-22T01:28:48.954Z,101394.38
2019-04-22T01:29:46.355Z,101393.55
2019-04-22T01:30:44.045Z,101392.83
2019-04-22T01:31:37.146Z,101392.64
2019-04-22T01:32:39.998Z,101392.02
2019-04-22T01:33:40.774Z,101391.50
2019-04-22T01:34:51.404Z,101391.11
2019-04-22T01:35:56.873Z,101391.00
2019-04-22T01:36:55.595Z,101390.19
2019-04-22T01:37:54.698Z,101389.32
2019-04-22T01:38:58.366Z,101388.70
2019-04-22T01:40:06.077Z,101388.09
2019-04-22T01:41:13.129Z,101386.92
2019-04-22T01:43:07.307Z,101385.92
2019-04-22T01:44:16.467Z,101385.22
2019-04-22T01:45:12.429Z,101385.00
2019-04-22T01:46:08.504Z,101383.96
2019-04-22T01:47:08.070Z,101383.59
2019-04-22T01:48:02.845Z,101383.13
2019-04-22T01:49:13.058Z,101382.34
2019-04-22T01:50:10.280Z,101382.13
2019-04-22T01:51:04.838Z,101381.34
2019-04-22T01:52:11.438Z,101380.94
2019-04-22T01:53:10.624Z,101380.25
2019-04-22T01:54:12.210Z,101379.80
2019-04-22T01:55:22.910Z,101379.49
2019-04-22T01:56:13.297Z,101378.45
2019-04-22T01:57:11.641Z,101377.84
2019-04-22T01:58:09.442Z,101377.53
2019-04-22T01:59:05.164Z,101377.12
2019-04-22T02:00:09.138Z,101376.16
2019-04-22T02:01:13.550Z,101375.63
2019-04-22T02:02:16.245Z,101375.27
2019-04-22T02:03:17.796Z,101374.74
2019-04-22T02:04:17.318Z,101374.16
2019-04-22T02:05:17.713Z,101373.71
2019-04-22T02:06:21.904Z,101373.42
2019-04-22T02:08:25.595Z,101372.95
2019-04-22T02:09:24.249Z,101372.68
2019-04-22T02:10:30.118Z,101372.66
2019-04-22T02:11:29.292Z,101372.68
2019-04-22T02:12:21.373Z,101372.09
2019-04-22T02:13:23.471Z,101370.97
2019-04-22T02:14:28.824Z,101370.66
2019-04-22T02:15:27.576Z,101370.05
2019-04-22T02:16:25.632Z,101369.52
2019-04-22T02:17:27.721Z,101368.73
2019-04-22T02:18:39.419Z,101368.36
2019-04-22T02:19:30.373Z,101367.83
2019-04-22T02:20:29.715Z,101368.14
2019-04-22T02:21:20.194Z,101368.03
2019-04-22T02:22:46.401Z,101367.58
2019-04-22T02:24:30.125Z,101366.94
2019-04-22T02:25:32.771Z,101366.70
2019-04-22T02:26:31.337Z,101366.26
2019-04-22T02:27:32.522Z,101365.78
2019-04-22T02:28:39.919Z,101365.33
2019-04-22T02:29:31.319Z,101364.55
2019-04-22T02:30:45.068Z,101364.16
2019-04-22T02:31:43.246Z,101364.09
2019-04-22T02:35:50.022Z,101362.16
2019-04-22T02:37:45.986Z,101361.20
2019-04-22T02:38:53.430Z,101361.14
2019-04-22T02:39:34.484Z,101361.17
2019-04-22T02:41:00.301Z,101361.03
2019-04-22T02:42:38.898Z,101360.05
2019-04-22T02:43:51.846Z,101359.59
2019-04-22T02:44:48.540Z,101359.28
2019-04-22T02:45:58.215Z,101358.66
2019-04-22T02:47:02.693Z,101358.02
2019-04-22T02:47:35.817Z,101357.45
2019-04-22T02:48:53.773Z,101356.92
2019-04-22T02:49:37.573Z,101356.19
2019-04-22T02:50:46.179Z,101356.05
2019-04-22T02:53:03.621Z,101354.88
2019-04-22T02:54:51.046Z,101353.15
2019-04-22T02:55:49.626Z,101352.28
2019-04-22T02:59:52.604Z,101349.58
2019-04-22T03:00:58.904Z,101348.87
2019-04-22T03:04:43.827Z,101346.06
2019-04-22T03:05:55.978Z,101345.78
2019-04-22T03:09:55.497Z,101343.28
2019-04-22T03:12:02.775Z,101341.73
2019-04-22T03:12:51.965Z,101340.91
2019-04-22T03:14:00.585Z,101340.60
2019-04-22T03:16:07.877Z,101338.97
2019-04-22T03:16:50.404Z,101338.10
2019-04-22T03:20:02.640Z,101335.68
2019-04-22T03:20:58.360Z,101334.61
2019-04-22T03:23:05.823Z,101334.16
2019-04-22T03:23:11.605Z,101332.92
2019-04-22T03:24:05.969Z,101332.44
2019-04-22T03:25:24.144Z,101331.71
2019-04-22T03:26:23.223Z,101330.73
2019-04-22T03:27:56.314Z,101329.06
2019-04-22T03:28:56.882Z,101328.53
2019-04-22T03:30:33.710Z,101326.96
2019-04-22T03:33:11.919Z,101324.52
2019-04-22T03:35:00.512Z,101313.16
2019-04-22T03:35:36.987Z,101312.27
2019-04-22T03:36:45.211Z,101311.76
2019-04-22T03:37:21.466Z,101311.76
2019-04-22T03:38:47.948Z,101311.50
2019-04-22T03:39:33.486Z,101310.94
2019-04-22T03:42:09.861Z,101309.20
2019-04-22T03:43:13.627Z,101309.03
2019-04-22T03:44:23.598Z,101308.52
2019-04-22T03:45:26.249Z,101308.22
2019-04-22T03:46:14.681Z,101307.48
2019-04-22T03:48:28.700Z,101306.16
2019-04-22T03:49:30.811Z,101304.98
2019-04-22T03:50:22.028Z,101304.59
2019-04-22T03:51:33.206Z,101303.77
2019-04-22T03:54:34.578Z,101302.64
2019-04-22T03:55:23.099Z,101302.75
2019-04-22T03:56:57.333Z,101302.10
2019-04-22T03:57:36.972Z,101301.79
2019-04-22T03:58:16.251Z,101301.06
2019-04-22T03:59:33.585Z,101300.16
2019-04-22T04:00:41.650Z,101299.41
2019-04-22T04:01:29.579Z,101298.42
2019-04-22T04:02:28.872Z,101298.17
2019-04-22T04:03:20.758Z,101297.86
2019-04-22T04:05:43.120Z,101296.88
2019-04-22T04:06:29.840Z,101296.73
2019-04-22T04:08:35.730Z,101295.17
2019-04-22T04:09:38.609Z,101294.11
2019-04-22T04:11:38.536Z,101292.39
2019-04-22T04:16:36.722Z,101288.63
2019-04-22T04:17:29.123Z,101287.89
2019-04-22T04:18:36.401Z,101287.67
2019-04-22T04:21:37.947Z,101285.76
2019-04-22T04:22:46.072Z,101284.61
2019-04-22T04:23:37.863Z,101284.19
2019-04-22T04:24:48.901Z,101283.42
2019-04-22T04:26:48.237Z,101282.11
2019-04-22T04:27:54.137Z,101281.77
2019-04-22T04:29:45.198Z,101280.95
2019-04-22T04:31:35.455Z,101280.83
2019-04-22T04:33:54.624Z,101279.91
2019-04-22T04:34:54.295Z,101279.48
2019-04-22T04:35:43.356Z,101279.27
2019-04-22T04:36:34.125Z,101279.17
2019-04-22T04:37:48.407Z,101279.26
2019-04-22T04:38:49.177Z,101278.92
2019-04-22T04:39:43.389Z,101278.92
2019-04-22T04:40:50.839Z,101279.01
2019-04-22T04:41:42.066Z,101278.92
2019-04-22T04:42:54.187Z,101278.98
2019-04-22T04:43:47.443Z,101278.65
2019-04-22T04:45:07.825Z,101278.45
2019-04-22T04:46:02.848Z,101278.03
2019-04-22T04:46:53.925Z,101277.78
2019-04-22T04:48:55.707Z,101277.31
2019-04-22T04:49:52.716Z,101276.87
2019-04-22T04:50:53.332Z,101276.93
2019-04-22T04:53:06.206Z,101277.02
2019-04-22T04:53:52.746Z,101276.58
2019-04-22T04:54:53.834Z,101276.39
2019-04-22T04:56:02.793Z,101276.67
2019-04-22T04:56:56.440Z,101276.29
2019-04-22T05:01:05.675Z,101276.44
2019-04-22T05:05:06.241Z,101276.45
2019-04-22T05:05:49.008Z,101276.42
2019-04-22T05:08:01.053Z,101275.77
2019-04-22T05:09:10.879Z,101275.30
2019-04-22T05:09:59.983Z,101275.58
2019-04-22T05:11:01.089Z,101275.11
2019-04-22T05:12:05.373Z,101275.14
2019-04-22T05:12:56.675Z,101274.78
2019-04-22T05:14:01.203Z,101274.95
2019-04-22T05:14:54.997Z,101275.30
2019-04-22T05:16:10.569Z,101275.25
2019-04-22T05:16:54.711Z,101274.75
2019-04-22T05:18:02.929Z,101274.51
2019-04-22T05:18:59.180Z,101273.76
2019-04-22T05:20:00.806Z,101273.09
2019-04-22T05:21:14.682Z,101272.20
2019-04-22T05:22:01.835Z,101272.03
2019-04-22T05:22:51.562Z,101271.95
2019-04-22T05:24:02.481Z,101271.45
2019-04-22T05:24:59.294Z,101270.89
2019-04-22T05:25:57.422Z,101270.56
2019-04-22T05:26:57.500Z,101270.31
2019-04-22T05:27:51.013Z,101269.62
2019-04-22T05:28:57.887Z,101269.03
2019-04-22T05:30:19.578Z,101268.06
2019-04-22T05:30:57.326Z,101267.75
2019-04-22T05:31:59.795Z,101267.14
2019-04-22T05:32:55.373Z,101266.60
2019-04-22T05:33:56.735Z,101266.09
2019-04-22T05:34:52.807Z,101265.61
2019-04-22T05:36:01.565Z,101264.94
2019-04-22T05:37:01.274Z,101264.77
2019-04-22T05:38:05.060Z,101264.09
2019-04-22T05:39:01.853Z,101263.82
2019-04-22T05:39:56.472Z,101262.98
2019-04-22T05:40:56.147Z,101262.27
2019-04-22T05:42:03.416Z,101261.69
2019-04-22T05:43:01.867Z,101262.03
2019-04-22T05:44:02.762Z,101261.23
2019-04-22T05:45:03.284Z,101261.12
2019-04-22T05:46:02.967Z,101260.77
2019-04-22T05:47:02.933Z,101260.79
2019-04-22T05:48:02.814Z,101260.66
2019-04-22T05:49:07.757Z,101260.37
2019-04-22T05:50:06.546Z,101259.53
2019-04-22T05:52:31.668Z,101247.44
2019-04-22T05:53:40.531Z,101252.88
2019-04-22T05:54:40.119Z,101252.84
2019-04-22T05:55:43.875Z,101251.73
2019-04-22T05:56:47.704Z,101251.20
2019-04-22T05:57:38.243Z,101250.83
2019-04-22T05:58:45.302Z,101250.84
2019-04-22T06:01:03.990Z,101250.09
2019-04-22T06:01:59.253Z,101249.27
2019-04-22T06:03:46.139Z,101248.95
2019-04-22T06:04:44.956Z,101248.41
2019-04-22T06:06:36.907Z,101247.57
2019-04-22T06:07:38.550Z,101247.30
2019-04-22T06:08:44.377Z,101246.91
2019-04-22T06:09:38.898Z,101246.77
2019-04-22T06:10:45.649Z,101246.08
2019-04-22T06:11:54.432Z,101245.58
2019-04-22T06:12:38.901Z,101244.88
2019-04-22T06:13:41.898Z,101244.61
2019-04-22T06:14:40.353Z,101244.09
2019-04-22T06:15:38.931Z,101243.37
2019-04-22T06:16:44.328Z,101242.54
2019-04-22T06:17:47.313Z,101242.02
2019-04-22T06:18:47.013Z,101241.50
2019-04-22T06:19:44.945Z,101241.09
2019-04-22T06:20:53.229Z,101240.74
2019-04-22T06:21:50.138Z,101240.18
2019-04-22T06:22:50.541Z,101239.03
2019-04-22T06:24:06.303Z,101238.80
2019-04-22T06:24:54.143Z,101237.98
2019-04-22T06:28:35.203Z,101223.39
2019-04-22T06:29:41.871Z,101222.89
2019-04-22T06:30:29.118Z,101222.82
2019-04-22T06:32:03.392Z,101222.91
2019-04-22T06:33:34.784Z,101222.35
2019-04-22T06:35:36.367Z,101222.08
2019-04-22T06:36:43.573Z,101221.52
2019-04-22T06:37:34.586Z,101221.74
2019-04-22T06:39:35.697Z,101221.34
2019-04-22T06:40:31.585Z,101220.88
2019-04-22T06:41:34.679Z,101221.02
2019-04-22T06:42:35.418Z,101220.66
2019-04-22T06:43:38.077Z,101220.56
2019-04-22T06:44:36.605Z,101220.98
2019-04-22T06:45:35.372Z,101220.86
2019-04-22T06:47:52.763Z,101220.52
2019-04-22T06:48:35.765Z,101220.27
2019-04-22T06:49:41.677Z,101220.13
2019-04-22T06:51:40.222Z,101218.62
2019-04-22T06:52:38.291Z,101218.52
2019-04-22T06:53:40.537Z,101218.92
2019-04-22T06:54:42.421Z,101218.59
2019-04-22T06:55:41.447Z,101218.11
2019-04-22T06:56:42.641Z,101217.80
2019-04-22T06:57:43.490Z,101218.09
2019-04-22T06:58:50.611Z,101217.83
2019-04-22T06:59:42.679Z,101217.52
2019-04-22T07:00:43.073Z,101216.78
2019-04-22T07:03:56.953Z,101214.81
2019-04-22T07:04:50.707Z,101213.36
2019-04-22T07:05:47.478Z,101211.76
2019-04-22T07:06:48.114Z,101211.28
2019-04-22T07:07:52.158Z,101210.09
2019-04-22T07:10:03.997Z,101208.09
2019-04-22T07:10:50.876Z,101206.83
2019-04-22T07:11:53.107Z,101205.36
2019-04-22T07:12:52.036Z,101203.91
2019-04-22T07:13:49.104Z,101202.19
2019-04-22T07:14:43.210Z,101201.07
2019-04-22T07:16:54.520Z,101198.42
2019-04-22T07:17:58.303Z,101197.05
2019-04-22T07:18:54.468Z,101196.40
2019-04-22T07:19:47.378Z,101195.14
2019-04-22T07:20:58.184Z,101194.34
2019-04-22T07:21:57.688Z,101193.27
2019-04-22T07:22:51.455Z,101191.73
2019-04-22T07:25:10.536Z,101189.81
2019-04-22T07:25:54.667Z,101188.83
2019-04-22T07:26:58.604Z,101187.52
2019-04-22T07:28:02.045Z,101186.25
2019-04-22T07:28:55.083Z,101185.10
2019-04-22T07:30:01.920Z,101184.06
2019-04-22T07:30:57.734Z,101182.36
2019-04-22T07:32:00.531Z,101181.16
2019-04-22T07:33:15.117Z,101179.55
2019-04-22T07:33:58.306Z,101178.06
2019-04-22T07:35:01.422Z,101176.30
2019-04-22T07:36:25.748Z,101174.81
2019-04-22T07:37:09.255Z,101173.78
2019-04-22T07:38:06.150Z,101172.52
2019-04-22T07:39:01.563Z,101171.11
2019-04-22T07:39:56.293Z,101170.09
2019-04-22T07:40:59.468Z,101168.67
2019-04-22T07:41:55.952Z,101167.23
2019-04-22T07:43:04.328Z,101165.99
2019-04-22T07:45:08.622Z,101163.08
2019-04-22T07:46:12.012Z,101161.82
2019-04-22T07:47:13.939Z,101160.05
2019-04-22T07:48:22.602Z,101159.03
2019-04-22T07:50:22.933Z,101156.68
2019-04-22T07:51:07.524Z,101155.78
2019-04-22T07:52:09.825Z,101154.28
2019-04-22T07:53:05.264Z,101153.16
2019-04-22T07:54:06.541Z,101151.94
2019-04-22T07:55:07.096Z,101150.55
2019-04-22T07:56:12.409Z,101148.98
2019-04-22T07:57:15.364Z,101147.73
2019-04-22T07:58:16.084Z,101146.77
2019-04-22T07:59:13.662Z,101145.72
2019-04-22T08:01:14.095Z,101142.83
2019-04-22T08:02:10.205Z,101141.73
2019-04-22T08:04:50.107Z,101127.70
2019-04-22T08:06:38.511Z,101125.39
2019-04-22T08:07:36.539Z,101124.50
2019-04-22T08:12:38.975Z,101122.46
2019-04-22T08:13:38.257Z,101122.49
2019-04-22T08:14:42.361Z,101121.89
2019-04-22T08:15:41.781Z,101122.23
2019-04-22T08:16:41.367Z,101121.80
2019-04-22T08:18:56.835Z,101121.59
2019-04-22T08:19:45.606Z,101121.81
2019-04-22T08:20:42.535Z,101121.25
2019-04-22T08:21:38.479Z,101121.69
2019-04-22T08:22:49.015Z,101121.26
2019-04-22T08:23:43.254Z,101120.94
2019-04-22T08:24:42.015Z,101120.38
2019-04-22T08:25:41.530Z,101120.14
2019-04-22T08:26:41.376Z,101119.56
2019-04-22T08:27:47.397Z,101118.92
2019-04-22T08:28:49.091Z,101118.48
2019-04-22T08:29:52.427Z,101117.97
2019-04-22T08:31:49.154Z,101116.91
2019-04-22T08:32:45.960Z,101116.08
2019-04-22T08:33:52.457Z,101115.34
2019-04-22T08:34:42.190Z,101114.56
2019-04-22T08:36:00.813Z,101113.22
2019-04-22T08:37:22.826Z,101111.72
2019-04-22T08:37:57.608Z,101110.33
2019-04-22T08:39:01.949Z,101109.05
2019-04-22T08:39:40.602Z,101108.14
2019-04-22T08:40:50.138Z,101107.52
2019-04-22T08:41:40.173Z,101106.59
2019-04-22T08:43:02.185Z,101105.25
2019-04-22T08:44:00.919Z,101104.13
2019-04-22T08:45:08.119Z,101102.98
2019-04-22T08:45:51.081Z,101102.03
2019-04-22T08:46:53.607Z,101100.63
2019-04-22T08:47:47.958Z,101098.85
2019-04-22T08:49:57.107Z,101096.59
2019-04-22T08:50:56.389Z,101095.16
2019-04-22T08:51:58.910Z,101094.37
2019-04-22T08:52:57.595Z,101094.06
2019-04-22T08:54:00.289Z,101092.50
2019-04-22T08:54:57.437Z,101091.82
2019-04-22T08:56:10.891Z,101090.55
2019-04-22T08:56:50.920Z,101089.27
2019-04-22T08:59:04.732Z,101087.48
2019-04-22T09:00:00.585Z,101086.36
2019-04-22T09:00:57.095Z,101084.55
2019-04-22T09:01:59.345Z,101083.09
2019-04-22T09:03:00.171Z,101081.61
2019-04-22T09:03:58.078Z,101080.34
2019-04-22T09:04:55.973Z,101078.95
2019-04-22T09:07:59.385Z,101073.89
2019-04-22T09:09:03.413Z,101072.44
2019-04-22T09:10:08.679Z,101070.86
2019-04-22T09:11:08.177Z,101069.05
2019-04-22T09:12:00.229Z,101067.52
2019-04-22T09:13:13.930Z,101066.02
2019-04-22T09:14:02.967Z,101063.53
2019-04-22T09:14:55.994Z,101061.68
2019-04-22T09:16:02.273Z,101059.46
2019-04-22T09:17:07.463Z,101057.38
2019-04-22T09:18:08.383Z,101055.83
2019-04-22T09:19:10.658Z,101053.77
2019-04-22T09:20:11.284Z,101052.38
2019-04-22T09:21:13.064Z,101050.64
2019-04-22T09:22:05.301Z,101049.70
2019-04-22T09:23:09.232Z,101048.03
2019-04-22T09:24:10.287Z,101046.16
2019-04-22T09:25:03.762Z,101044.75
2019-04-22T09:26:09.172Z,101042.62
2019-04-22T09:27:12.992Z,101041.15
2019-04-22T09:28:10.441Z,101039.23
2019-04-22T09:29:17.993Z,101037.26
2019-04-22T09:30:04.746Z,101035.47
2019-04-22T09:31:11.625Z,101033.64
2019-04-22T09:32:11.609Z,101032.03
2019-04-22T09:33:15.310Z,101029.53
2019-04-22T09:34:06.458Z,101027.30
2019-04-22T09:35:10.246Z,101025.28
2019-04-22T09:36:16.787Z,101023.06
2019-04-22T09:38:26.811Z,101018.66
2019-04-22T09:39:19.462Z,101016.33
2019-04-22T09:41:14.136Z,101011.13
2019-04-22T09:42:11.981Z,101008.98
2019-04-22T09:43:16.915Z,101006.16
2019-04-22T09:44:09.322Z,101003.55
2019-04-22T09:45:11.636Z,101001.45
2019-04-22T09:46:18.313Z,100999.41
2019-04-22T09:47:19.224Z,100997.00
2019-04-22T09:48:29.711Z,100995.16
2019-04-22T09:49:23.222Z,100992.91
2019-04-22T09:50:27.601Z,100991.24
2019-04-22T09:51:19.029Z,100988.77
2019-04-22T09:52:14.919Z,100986.39
2019-04-22T09:53:22.238Z,100984.14
2019-04-22T09:54:22.211Z,100982.08
2019-04-22T09:55:17.976Z,100979.83
2019-04-22T09:56:28.046Z,100977.47
2019-04-22T09:57:21.223Z,100975.45
2019-04-22T09:59:22.690Z,100971.59
2019-04-22T10:00:25.481Z,100969.30
2019-04-22T10:01:38.615Z,100967.56
2019-04-22T10:02:26.727Z,100966.21
2019-04-22T10:03:29.015Z,100963.80
2019-04-22T10:04:18.213Z,100961.95
2019-04-22T10:05:29.397Z,100959.53
2019-04-22T10:07:27.479Z,100955.16
2019-04-22T10:08:38.616Z,100953.03
2019-04-22T10:09:40.629Z,100950.73
2019-04-22T10:10:21.369Z,100947.88
2019-04-22T10:12:32.180Z,100943.11
2019-04-22T10:13:34.701Z,100940.74
2019-04-22T10:14:33.186Z,100938.51
2019-04-22T10:15:30.429Z,100936.30
2019-04-22T10:16:35.763Z,100934.19
2019-04-22T10:17:25.145Z,100932.36
2019-04-22T10:18:32.421Z,100930.28
2019-04-22T10:19:29.997Z,100928.20
2019-04-22T10:20:36.263Z,100925.69
2019-04-22T10:21:35.242Z,100922.92
2019-04-22T10:22:32.556Z,100920.89
2019-04-22T10:23:34.087Z,100917.74
2019-04-22T10:24:26.453Z,100915.02
2019-04-22T10:25:31.307Z,100912.43
2019-04-22T10:26:36.535Z,100910.09
2019-04-22T10:27:32.476Z,100907.91
2019-04-22T10:28:40.940Z,100905.29
2019-04-22T10:29:38.603Z,100903.15
2019-04-22T10:30:39.235Z,100900.73
2019-04-22T10:31:37.162Z,100898.73
2019-04-22T10:32:33.508Z,100896.18
2019-04-22T10:33:30.932Z,100894.45
2019-04-22T10:34:23.846Z,100891.75
2019-04-22T10:35:17.237Z,100889.09
2019-04-22T10:36:13.018Z,100886.15
2019-04-22T10:37:17.072Z,100884.07
2019-04-22T10:38:12.663Z,100881.69
2019-04-22T10:38:22.074Z,100848.93
2019-04-22T10:39:32.850Z,100848.61
2019-04-22T10:40:22.000Z,100848.58
2019-04-22T10:41:23.811Z,100847.37
2019-04-22T10:42:25.108Z,100846.33
2019-04-22T10:43:25.225Z,100845.98
2019-04-22T10:44:23.934Z,100844.72
2019-04-22T10:45:26.067Z,100843.99
2019-04-22T10:46:24.578Z,100843.30
2019-04-22T10:47:25.955Z,100842.27
2019-04-22T10:48:26.255Z,100841.48
2019-04-22T10:49:26.449Z,100841.17
2019-04-22T10:50:25.569Z,100839.98
2019-04-22T10:51:28.687Z,100839.26
2019-04-22T10:52:27.656Z,100838.75
2019-04-22T10:53:27.424Z,100838.54
2019-04-22T10:54:29.814Z,100837.16
2019-04-22T10:55:29.547Z,100836.28
2019-04-22T10:56:28.107Z,100835.84
2019-04-22T10:57:30.068Z,100834.91
2019-04-22T10:58:31.014Z,100834.16
2019-04-22T10:59:32.351Z,100833.61
2019-04-22T11:00:31.843Z,100833.23
2019-04-22T11:01:33.913Z,100831.93
2019-04-22T11:02:32.844Z,100830.94
2019-04-22T11:03:35.230Z,100830.08
2019-04-22T11:04:34.432Z,100828.67
2019-04-22T11:05:34.315Z,100828.26
2019-04-22T11:06:42.929Z,100827.92
2019-04-22T11:07:42.390Z,100827.45
2019-04-22T11:08:44.506Z,100826.69
2019-04-22T11:09:47.635Z,100826.35
2019-04-22T11:10:52.182Z,100825.11
2019-04-22T11:11:48.007Z,100824.81
2019-04-22T11:12:39.363Z,100823.64
2019-04-22T11:13:39.851Z,100823.19
2019-04-22T11:14:41.832Z,100821.70
2019-04-22T11:15:40.495Z,100820.40
2019-04-22T11:16:39.788Z,100819.30
2019-04-22T11:17:41.829Z,100818.61
2019-04-22T11:18:41.262Z,100817.98
2019-04-22T11:19:41.530Z,100816.91
2019-04-22T11:20:41.885Z,100815.57
2019-04-22T11:21:41.366Z,100814.43
2019-04-22T11:22:42.684Z,100813.29
2019-04-22T11:23:42.675Z,100812.05
2019-04-22T11:24:42.609Z,100810.36
2019-04-22T11:25:44.012Z,100809.28
2019-04-22T11:26:43.210Z,100807.94
2019-04-22T11:27:44.362Z,100807.14
2019-04-22T11:28:45.497Z,100806.06
2019-04-22T11:29:45.697Z,100805.20
2019-04-22T11:30:46.089Z,100804.75
2019-04-22T11:32:26.472Z,100784.67
2019-04-22T11:33:26.641Z,100784.12
2019-04-22T11:34:26.926Z,100783.40
2019-04-22T11:35:27.806Z,100782.87
2019-04-22T11:36:30.437Z,100782.70
2019-04-22T11:37:28.418Z,100782.19
2019-04-22T11:38:29.100Z,100782.30
2019-04-22T11:39:34.500Z,100781.60
2019-04-22T11:40:37.818Z,100781.42
2019-04-22T11:41:31.134Z,100781.08
2019-04-22T11:42:30.462Z,100780.39
2019-04-22T11:43:32.336Z,100779.28
2019-04-22T11:44:31.115Z,100778.38
2019-04-22T11:45:33.237Z,100777.28
2019-04-22T11:46:31.553Z,100777.23
2019-04-22T11:47:33.073Z,100776.89
2019-04-22T11:48:33.872Z,100775.61
2019-04-22T11:49:34.100Z,100774.82
2019-04-22T11:50:33.566Z,100773.81
2019-04-22T11:51:33.855Z,100772.95
2019-04-22T11:52:35.068Z,100772.02
2019-04-22T11:53:34.594Z,100770.43
2019-04-22T11:54:35.104Z,100769.73
2019-04-22T11:55:36.962Z,100768.24
2019-04-22T11:56:36.941Z,100766.52
2019-04-22T11:57:37.168Z,100766.09
2019-04-22T11:58:37.220Z,100764.33
2019-04-22T11:59:36.544Z,100763.78
2019-04-22T12:00:38.861Z,100762.68
2019-04-22T12:01:37.201Z,100761.99
2019-04-22T12:02:38.704Z,100760.58
2019-04-22T12:03:38.041Z,100759.58
2019-04-22T12:04:38.151Z,100758.78
2019-04-22T12:05:38.016Z,100758.41
2019-04-22T12:06:40.104Z,100757.54
2019-04-22T12:07:40.423Z,100756.50
2019-04-22T12:08:39.751Z,100755.70
2019-04-22T12:09:39.925Z,100754.67
2019-04-22T12:10:49.464Z,100753.11
2019-04-22T12:11:40.808Z,100751.77
2019-04-22T12:12:44.381Z,100750.28
2019-04-22T12:13:42.223Z,100748.61
2019-04-22T12:14:42.464Z,100746.84
2019-04-22T12:15:42.753Z,100745.02
2019-04-22T12:16:43.460Z,100744.05
2019-04-22T12:17:42.626Z,100741.97
2019-04-22T12:18:43.237Z,100741.34
2019-04-22T12:19:46.278Z,100739.61
2019-04-22T12:20:45.389Z,100737.26
2019-04-22T12:21:45.118Z,100735.70
2019-04-22T12:22:47.298Z,100734.49
2019-04-22T12:23:45.302Z,100733.11
2019-04-22T12:24:46.103Z,100731.90
2019-04-22T12:25:53.559Z,100730.14
2019-04-22T12:26:46.419Z,100728.23
2019-04-22T12:27:47.247Z,100726.30
2019-04-22T12:28:48.860Z,100724.98
2019-04-22T12:29:49.036Z,100724.27
2019-04-22T12:30:48.984Z,100722.47
2019-04-22T12:31:51.346Z,100720.75
2019-04-22T12:32:50.531Z,100719.51
2019-04-22T12:33:49.656Z,100717.84
2019-04-22T12:34:51.284Z,100716.57
2019-04-22T12:35:50.588Z,100715.05
2019-04-22T12:36:51.065Z,100713.15
2019-04-22T12:37:56.879Z,100711.63
2019-04-22T12:38:51.432Z,100709.83
2019-04-22T12:39:53.098Z,100708.69
2019-04-22T12:40:58.513Z,100707.55
2019-04-22T12:41:52.143Z,100705.06
2019-04-22T12:42:53.471Z,100704.13
2019-04-22T12:43:53.663Z,100702.13
2019-04-22T12:44:55.988Z,100700.56
2019-04-22T12:45:54.572Z,100698.66
2019-04-22T12:46:56.457Z,100697.11
2019-04-22T12:47:56.023Z,100695.77
2019-04-22T12:48:56.236Z,100695.00
2019-04-22T12:50:06.809Z,100694.83
2019-04-22T12:50:58.439Z,100693.23
2019-04-22T12:51:57.123Z,100692.52
2019-04-22T12:53:02.399Z,100691.48
2019-04-22T12:53:57.282Z,100690.96
2019-04-22T12:54:57.923Z,100690.27
2019-04-22T12:55:59.886Z,100688.78
2019-04-22T12:56:59.669Z,100687.13
2019-04-22T12:58:02.441Z,100686.19
2019-04-22T12:58:59.600Z,100684.35
2019-04-22T13:00:01.923Z,100682.86
2019-04-22T13:01:01.052Z,100680.52
2019-04-22T13:02:00.754Z,100678.99
2019-04-22T13:03:01.133Z,100677.44